Time;durP1;ratioP1;P1;durP2;ratioP2;P2;SDS_P1;SDS_P2;PMS_P1;PMS_P2;Temp;Humidity;BMP_temperature;BMP_pressure;BME280_temperature;BME280_humidity;BME280_pressure;Samples;Min_cycle;Max_cycle;Signal;HPM_P1;HPM_P2
2021/03/24 00:01:54;;;;;;;9.75;8.85;;;29.30;71.00;;;;;;5067627;28;20701;-48
2021/03/24 00:04:25;;;;;;;11.10;8.57;;;29.30;71.10;;;;;;5067506;28;20201;-50
2021/03/24 00:06:55;;;;;;;9.25;8.43;;;29.30;71.00;;;;;;5060317;28;20202;-51
2021/03/24 00:09:27;;;;;;;13.27;8.98;;;29.40;71.00;;;;;;5052243;28;20206;-49
2021/03/24 00:11:58;;;;;;;14.15;10.65;;;29.40;70.60;;;;;;5056372;28;20220;-51
2021/03/24 00:14:28;;;;;;;10.23;9.23;;;29.40;69.80;;;;;;5052015;28;20229;-48
2021/03/24 00:16:59;;;;;;;12.25;10.48;;;29.40;69.60;;;;;;5051769;28;20283;-51
2021/03/24 00:19:30;;;;;;;13.10;10.52;;;29.40;69.20;;;;;;5054357;28;20204;-50
2021/03/24 00:22:07;;;;;;;11.32;10.25;;;29.50;69.10;;;;;;5065737;28;20809;-49
2021/03/24 00:24:39;;;;;;;11.45;10.35;;;29.50;68.90;;;;;;5064134;28;20217;-51
2021/03/24 00:27:10;;;;;;;11.93;10.77;;;29.60;68.80;;;;;;5066285;28;20193;-52
2021/03/24 00:29:40;;;;;;;12.80;10.48;;;29.60;68.60;;;;;;5066616;28;20257;-50
2021/03/24 00:32:11;;;;;;;13.63;10.45;;;29.70;68.40;;;;;;5064573;28;20243;-53
2021/03/24 00:34:42;;;;;;;11.73;10.43;;;29.70;68.40;;;;;;5066964;28;20257;-50
2021/03/24 00:37:12;;;;;;;11.55;10.48;;;29.80;68.30;;;;;;5056213;28;20209;-48
2021/03/24 00:39:44;;;;;;;11.35;10.25;;;29.80;68.20;;;;;;5064859;28;20212;-49
2021/03/24 00:42:15;;;;;;;11.82;9.57;;;29.90;68.20;;;;;;5066865;28;20253;-50
2021/03/24 00:44:45;;;;;;;11.00;9.57;;;29.90;68.30;;;;;;5066289;28;20273;-49
2021/03/24 00:47:16;;;;;;;12.48;11.23;;;30.00;68.60;;;;;;5055550;28;20194;-52
2021/03/24 00:49:47;;;;;;;12.18;10.98;;;30.00;68.60;;;;;;5051465;28;20198;-48
2021/03/24 00:52:33;;;;;;;11.18;10.05;;;30.10;68.70;;;;;;5057902;28;20224;-48
2021/03/24 00:55:05;;;;;;;10.55;9.27;;;30.20;68.70;;;;;;5060601;28;20277;-50
2021/03/24 00:57:35;;;;;;;10.73;9.63;;;30.30;68.40;;;;;;5052182;28;20260;-50
2021/03/24 01:00:07;;;;;;;9.98;9.05;;;30.40;68.30;;;;;;5052120;28;20245;-50
2021/03/24 01:02:37;;;;;;;12.38;9.80;;;30.40;68.20;;;;;;5065060;28;20283;-50
2021/03/24 01:05:09;;;;;;;10.52;9.52;;;30.50;67.40;;;;;;5059789;28;20650;-52
2021/03/24 01:07:39;;;;;;;10.82;9.77;;;30.50;67.00;;;;;;5063175;28;20217;-51
2021/03/24 01:10:13;;;;;;;11.20;9.10;;;30.60;67.10;;;;;;5065715;28;20228;-54
2021/03/24 01:12:44;;;;;;;11.35;9.55;;;30.70;66.80;;;;;;5065381;28;20218;-51
2021/03/24 01:15:15;;;;;;;10.43;8.68;;;30.80;66.60;;;;;;5065931;28;20630;-51
2021/03/24 01:17:46;;;;;;;10.35;9.25;;;30.80;66.90;;;;;;5066311;28;20233;-49
2021/03/24 01:20:17;;;;;;;9.40;8.20;;;30.90;66.80;;;;;;5052947;28;20642;-51
2021/03/24 01:22:55;;;;;;;8.98;8.07;;;31.00;66.80;;;;;;5064312;28;20246;-48
2021/03/24 01:25:27;;;;;;;9.38;8.48;;;31.10;66.50;;;;;;5050967;28;20216;-50
2021/03/24 01:27:59;;;;;;;9.45;8.55;;;31.20;65.60;;;;;;5065593;28;20204;-49
2021/03/24 01:30:30;;;;;;;11.48;8.93;;;31.30;64.90;;;;;;5065219;28;20202;-50
2021/03/24 01:33:01;;;;;;;12.90;9.98;;;31.40;64.80;;;;;;5063950;28;20828;-51
2021/03/24 01:35:32;;;;;;;10.32;9.15;;;31.40;63.80;;;;;;5059756;28;20197;-49
2021/03/24 01:38:02;;;;;;;11.88;9.65;;;31.50;63.90;;;;;;5065600;28;20809;-50
2021/03/24 01:40:37;;;;;;;10.02;9.13;;;31.60;63.70;;;;;;5053848;28;20657;-51
2021/03/24 01:43:08;;;;;;;9.13;8.23;;;31.70;63.40;;;;;;5050229;28;20209;-51
2021/03/24 01:46:17;;;;;;;11.00;9.90;;;31.80;63.60;;;;;;5065076;28;20221;-49
2021/03/24 01:48:48;;;;;;;10.93;9.35;;;31.90;61.40;;;;;;5064445;28;20272;-51
2021/03/24 01:51:20;;;;;;;10.25;9.25;;;31.90;62.00;;;;;;5063110;28;21065;-51
2021/03/24 01:53:50;;;;;;;9.50;8.68;;;32.00;62.30;;;;;;5062966;28;20700;-49
2021/03/24 01:56:22;;;;;;;9.65;8.75;;;32.10;62.20;;;;;;5055243;28;20201;-48
2021/03/24 01:58:52;;;;;;;10.73;9.30;;;32.10;61.70;;;;;;5060420;28;20213;-50
2021/03/24 02:01:22;;;;;;;13.55;9.20;;;32.20;61.70;;;;;;5064389;28;20586;-55
2021/03/24 02:03:53;;;;;;;11.75;9.77;;;32.30;61.80;;;;;;5064180;28;20201;-48
2021/03/24 02:06:26;;;;;;;9.43;8.35;;;32.40;61.00;;;;;;5059137;28;20609;-49
2021/03/24 02:09:05;;;;;;;10.15;8.85;;;32.40;60.70;;;;;;5057224;28;20201;-49
2021/03/24 02:11:38;;;;;;;10.15;9.18;;;32.50;60.00;;;;;;5062697;28;20209;-52
2021/03/24 02:14:12;;;;;;;10.45;9.35;;;32.60;59.50;;;;;;5051982;28;20202;-49
2021/03/24 02:16:43;;;;;;;9.77;8.77;;;32.60;59.10;;;;;;5050507;28;20642;-52
2021/03/24 02:19:51;;;;;;;9.70;8.70;;;32.70;59.60;;;;;;5014497;28;20219;-51
2021/03/24 02:22:26;;;;;;;10.77;8.63;;;32.80;59.30;;;;;;4924541;29;20715;-50
2021/03/24 02:25:00;;;;;;;9.27;8.40;;;32.90;59.00;;;;;;4920531;29;20723;-54
2021/03/24 02:27:33;;;;;;;9.25;8.40;;;33.00;58.90;;;;;;4954707;28;20204;-51
2021/03/24 02:30:11;;;;;;;9.18;8.38;;;33.10;58.90;;;;;;4983793;28;20207;-48
2021/03/24 02:32:42;;;;;;;10.63;7.57;;;33.20;58.90;;;;;;4984722;28;20234;-50
2021/03/24 02:35:15;;;;;;;10.48;9.48;;;33.20;59.10;;;;;;4984924;28;20212;-50
2021/03/24 02:37:46;;;;;;;10.15;9.25;;;33.30;58.10;;;;;;4943922;29;20230;-54
2021/03/24 02:40:18;;;;;;;11.13;9.85;;;33.50;58.00;;;;;;4946155;29;20204;-54
2021/03/24 02:42:49;;;;;;;11.13;10.13;;;33.50;57.00;;;;;;4914424;29;20218;-54
2021/03/24 02:45:21;;;;;;;11.07;9.98;;;33.60;56.90;;;;;;4916880;29;20224;-49
2021/03/24 02:47:52;;;;;;;11.65;10.45;;;33.70;56.70;;;;;;4910845;29;20214;-54
2021/03/24 02:50:23;;;;;;;11.00;10.00;;;33.80;56.80;;;;;;4866571;29;20246;-52
2021/03/24 02:52:53;;;;;;;10.85;9.75;;;33.80;56.90;;;;;;4914723;29;20233;-51
2021/03/24 02:55:24;;;;;;;10.98;9.98;;;33.90;56.70;;;;;;4933527;29;20214;-49
2021/03/24 02:57:55;;;;;;;11.20;10.07;;;34.00;56.80;;;;;;4929880;29;20221;-49
2021/03/24 03:00:26;;;;;;;11.90;10.77;;;34.10;56.50;;;;;;4929439;29;20238;-50
2021/03/24 03:02:59;;;;;;;11.82;10.68;;;34.10;55.90;;;;;;4932539;29;20205;-52
2021/03/24 03:05:31;;;;;;;11.23;10.13;;;34.20;55.80;;;;;;4934151;29;20221;-50
2021/03/24 03:08:07;;;;;;;12.02;10.98;;;34.30;55.80;;;;;;4937095;28;20283;-53
2021/03/24 03:10:41;;;;;;;12.02;10.45;;;34.30;54.80;;;;;;4977256;28;20248;-49
2021/03/24 03:13:16;;;;;;;11.75;10.60;;;34.40;55.10;;;;;;4910354;29;20279;-50
2021/03/24 03:15:53;;;;;;;11.35;10.43;;;34.50;55.20;;;;;;4977080;28;20220;-48
2021/03/24 03:18:25;;;;;;;11.70;10.63;;;34.50;55.10;;;;;;4985055;28;20631;-49
2021/03/24 03:20:58;;;;;;;13.40;11.98;;;34.60;54.80;;;;;;5010961;28;20840;-49
2021/03/24 03:23:29;;;;;;;12.52;11.38;;;34.70;54.50;;;;;;5014954;28;20751;-48
2021/03/24 03:26:01;;;;;;;13.32;11.95;;;34.70;54.60;;;;;;5017566;28;20257;-49
2021/03/24 03:28:32;;;;;;;13.88;12.48;;;34.70;54.50;;;;;;5023846;28;20206;-50
2021/03/24 03:31:02;;;;;;;12.98;11.82;;;34.80;54.70;;;;;;5023253;28;20286;-49
2021/03/24 03:33:34;;;;;;;13.45;12.18;;;34.90;54.20;;;;;;5012264;28;20217;-48
2021/03/24 03:36:05;;;;;;;12.98;11.80;;;34.90;54.30;;;;;;5024520;28;20286;-53
2021/03/24 03:38:36;;;;;;;11.93;10.82;;;35.00;54.60;;;;;;5050340;28;20253;-54
2021/03/24 03:41:07;;;;;;;12.65;11.50;;;35.00;54.60;;;;;;5067706;28;20240;-54
2021/03/24 03:43:41;;;;;;;14.73;13.25;;;35.10;54.40;;;;;;5067395;28;20285;-53
2021/03/24 03:46:13;;;;;;;15.52;13.95;;;35.20;54.00;;;;;;5061700;28;20877;-51
2021/03/24 03:48:45;;;;;;;14.07;12.85;;;35.20;53.50;;;;;;5018470;28;20260;-50
2021/03/24 03:51:17;;;;;;;13.57;12.48;;;35.30;53.40;;;;;;4945581;29;20263;-49
2021/03/24 03:53:50;;;;;;;13.45;12.25;;;35.30;53.50;;;;;;4917419;29;20215;-52
2021/03/24 03:56:22;;;;;;;13.25;12.05;;;35.40;53.40;;;;;;4929039;29;20240;-50
2021/03/24 03:58:55;;;;;;;13.05;11.70;;;35.40;53.70;;;;;;4925452;29;20214;-50
2021/03/24 04:01:27;;;;;;;13.00;11.80;;;35.50;53.90;;;;;;4929486;29;20238;-50
2021/03/24 04:03:59;;;;;;;13.60;12.35;;;35.60;53.70;;;;;;4891693;29;20215;-49
2021/03/24 04:06:34;;;;;;;12.27;11.13;;;35.70;54.00;;;;;;4890803;29;20208;-49
2021/03/24 04:09:07;;;;;;;14.05;12.77;;;35.70;54.30;;;;;;4887800;29;20325;-49
2021/03/24 04:11:41;;;;;;;13.98;12.77;;;35.80;53.80;;;;;;4891532;29;20540;-51
2021/03/24 04:14:13;;;;;;;12.60;11.52;;;35.90;53.30;;;;;;4941959;29;20683;-50
2021/03/24 04:16:43;;;;;;;12.82;11.73;;;36.00;53.40;;;;;;4948390;29;20589;-52
2021/03/24 04:19:15;;;;;;;13.93;12.80;;;36.00;53.50;;;;;;4891912;29;20740;-50
2021/03/24 04:21:47;;;;;;;13.88;12.77;;;36.10;53.00;;;;;;4913445;28;20209;-51
2021/03/24 04:24:19;;;;;;;13.10;11.90;;;36.20;52.60;;;;;;4972560;28;20304;-52
2021/03/24 04:26:50;;;;;;;13.35;12.23;;;36.20;52.90;;;;;;4982677;28;20208;-52
2021/03/24 04:29:22;;;;;;;12.63;11.57;;;36.30;52.80;;;;;;4958992;28;20212;-48
2021/03/24 04:31:53;;;;;;;14.07;12.88;;;36.30;52.50;;;;;;4968188;28;20593;-50
2021/03/24 04:34:24;;;;;;;13.25;12.05;;;36.50;53.30;;;;;;4967691;28;20943;-51
2021/03/24 04:36:58;;;;;;;13.80;12.52;;;36.50;52.60;;;;;;4972685;28;20873;-50
2021/03/24 04:39:31;;;;;;;13.73;12.43;;;36.60;51.60;;;;;;4983942;28;20311;-49
2021/03/24 04:42:02;;;;;;;13.65;12.48;;;36.60;51.90;;;;;;4980032;28;20220;-50
2021/03/24 04:44:35;;;;;;;14.60;13.43;;;36.70;52.10;;;;;;4974276;28;20216;-48
2021/03/24 04:47:07;;;;;;;14.93;13.55;;;36.70;51.60;;;;;;4970362;28;20205;-48
2021/03/24 04:49:56;;;;;;;14.00;12.73;;;36.80;51.10;;;;;;4985898;28;21564;-48
2021/03/24 04:52:27;;;;;;;13.82;12.48;;;36.90;50.70;;;;;;5041552;28;20279;-49
2021/03/24 04:54:59;;;;;;;13.30;12.20;;;36.90;51.20;;;;;;5032214;28;20553;-54
2021/03/24 04:57:29;;;;;;;13.10;11.90;;;37.00;51.50;;;;;;5031766;28;20199;-48
2021/03/24 05:00:04;;;;;;;13.75;12.55;;;37.00;51.50;;;;;;5050221;28;20744;-50
2021/03/24 05:02:35;;;;;;;15.60;14.20;;;37.10;51.20;;;;;;5067396;28;20258;-50
2021/03/24 05:05:10;;;;;;;12.88;11.88;;;37.10;50.40;;;;;;5025845;28;20211;-49
2021/03/24 05:07:41;;;;;;;16.85;13.93;;;37.20;50.40;;;;;;4986678;28;20220;-48
2021/03/24 05:10:13;;;;;;;14.55;13.38;;;37.30;50.00;;;;;;4986118;28;20364;-50
2021/03/24 05:12:46;;;;;;;13.68;12.52;;;37.40;49.90;;;;;;4948180;29;20229;-50
2021/03/24 05:15:19;;;;;;;14.20;12.98;;;37.40;51.20;;;;;;4909447;29;20219;-49
2021/03/24 05:17:50;;;;;;;13.82;12.57;;;37.50;50.80;;;;;;4910217;29;20233;-49
2021/03/24 05:20:23;;;;;;;13.10;12.10;;;37.50;51.10;;;;;;4909769;29;20226;-51
2021/03/24 05:22:54;;;;;;;13.45;12.15;;;37.60;50.60;;;;;;4909887;29;20207;-49
2021/03/24 05:25:28;;;;;;;13.75;12.55;;;37.70;50.60;;;;;;4909558;29;20221;-50
2021/03/24 05:28:01;;;;;;;15.20;13.90;;;37.70;50.20;;;;;;4909282;29;20226;-49
2021/03/24 05:30:33;;;;;;;16.13;14.63;;;37.80;49.60;;;;;;4908512;29;20206;-50
2021/03/24 05:33:08;;;;;;;15.90;14.38;;;37.90;49.10;;;;;;4909149;29;20318;-49
2021/03/24 05:35:47;;;;;;;15.25;13.93;;;37.90;48.50;;;;;;4884311;29;20210;-50
2021/03/24 05:38:19;;;;;;;15.20;13.80;;;38.00;48.20;;;;;;4933957;29;20276;-54
2021/03/24 05:41:08;;;;;;;15.10;13.60;;;38.00;48.00;;;;;;4946690;29;20217;-52
2021/03/24 05:44:00;;;;;;;14.93;13.52;;;38.00;48.20;;;;;;4962660;28;20251;-48
2021/03/24 05:47:00;;;;;;;14.25;13.05;;;38.10;47.90;;;;;;5014761;28;20210;-53
2021/03/24 05:49:36;;;;;;;15.48;14.07;;;38.10;48.30;;;;;;4990857;28;20203;-49
2021/03/24 05:52:23;;;;;;;15.02;13.55;;;38.10;47.80;;;;;;5000718;28;20321;-50
2021/03/24 05:55:09;;;;;;;16.02;14.63;;;38.10;47.90;;;;;;4944422;29;20634;-52
2021/03/24 05:57:47;;;;;;;16.50;15.00;;;38.10;47.00;;;;;;4924403;29;20652;-49
2021/03/24 06:00:38;;;;;;;16.85;15.40;;;38.20;47.60;;;;;;4912784;29;20290;-48
2021/03/24 06:03:17;;;;;;;15.10;13.80;;;38.20;47.20;;;;;;4889175;29;20215;-50
2021/03/24 06:06:01;;;;;;;13.63;12.52;;;38.20;47.50;;;;;;4894387;29;20630;-50
2021/03/24 06:09:08;;;;;;;14.45;13.05;;;38.20;48.00;;;;;;4833487;29;20256;-47
2021/03/24 06:11:57;;;;;;;17.50;16.02;;;38.30;48.10;;;;;;4815833;29;20229;-48
2021/03/24 06:15:02;;;;;;;14.80;13.35;;;38.30;47.00;;;;;;4825903;29;20242;-53
2021/03/24 06:17:56;;;;;;;15.95;14.45;;;38.30;49.10;;;;;;4833334;29;20211;-51
2021/03/24 06:20:35;;;;;;;16.02;14.52;;;38.20;49.60;;;;;;4846871;29;20985;-52
2021/03/24 06:23:26;;;;;;;16.92;14.38;;;38.20;50.00;;;;;;4897332;29;20648;-50
2021/03/24 06:26:03;;;;;;;16.30;14.60;;;38.10;51.00;;;;;;4842538;29;20399;-51
2021/03/24 06:28:38;;;;;;;17.90;15.48;;;38.00;50.90;;;;;;4905236;29;20263;-51
2021/03/24 06:31:35;;;;;;;16.02;14.63;;;37.90;51.00;;;;;;4908951;29;20208;-55
2021/03/24 06:34:48;;;;;;;15.57;14.05;;;37.80;51.30;;;;;;4896351;29;20200;-51
2021/03/24 06:37:44;;;;;;;16.25;14.60;;;37.60;51.70;;;;;;4869714;29;20266;-50
2021/03/24 06:40:29;;;;;;;15.70;14.15;;;37.50;52.00;;;;;;4862842;29;20208;-49
2021/03/24 06:43:28;;;;;;;15.55;14.15;;;37.40;52.40;;;;;;4869133;29;20800;-53
2021/03/24 06:46:14;;;;;;;14.48;13.18;;;37.30;52.60;;;;;;4850661;29;20220;-49
2021/03/24 06:48:52;;;;;;;14.40;12.80;;;37.30;52.80;;;;;;4850695;29;20618;-51
2021/03/24 06:51:58;;;;;;;14.93;13.30;;;37.20;52.80;;;;;;4883251;29;20318;-50
2021/03/24 06:55:03;;;;;;;15.00;13.60;;;37.20;53.70;;;;;;4889351;29;20573;-51
2021/03/24 06:57:58;;;;;;;14.82;12.90;;;37.20;53.20;;;;;;4901049;29;20211;-53
2021/03/24 07:00:38;;;;;;;16.00;14.57;;;37.20;53.60;;;;;;4924620;29;20242;-48
2021/03/24 07:03:55;;;;;;;13.93;12.63;;;37.00;53.40;;;;;;4855060;29;20215;-50
2021/03/24 07:06:33;;;;;;;16.20;14.80;;;37.00;54.00;;;;;;4895816;29;20204;-53
2021/03/24 07:09:10;;;;;;;15.10;13.60;;;36.90;54.00;;;;;;4929941;29;20233;-52
2021/03/24 07:12:02;;;;;;;14.65;13.25;;;36.90;54.00;;;;;;4948938;29;20295;-49
2021/03/24 07:14:51;;;;;;;14.10;12.80;;;36.80;54.90;;;;;;4947182;29;20264;-52
2021/03/24 07:17:50;;;;;;;15.13;13.82;;;36.70;54.90;;;;;;4949016;29;20219;-49
2021/03/24 07:21:04;;;;;;;15.07;13.63;;;36.70;54.90;;;;;;4952265;28;20252;-48
2021/03/24 07:24:08;;;;;;;14.90;13.60;;;36.60;55.30;;;;;;4888753;29;20208;-54
2021/03/24 07:26:55;;;;;;;16.27;14.82;;;36.60;55.40;;;;;;4855592;29;20345;-50
2021/03/24 07:29:42;;;;;;;14.18;12.88;;;36.60;55.10;;;;;;4907562;29;20216;-49
2021/03/24 07:32:14;;;;;;;15.13;13.73;;;36.50;55.30;;;;;;4928042;29;20369;-48
2021/03/24 07:34:51;;;;;;;14.23;12.68;;;36.40;55.10;;;;;;4930101;29;20210;-50
2021/03/24 07:37:45;;;;;;;15.32;13.95;;;36.50;55.10;;;;;;4929100;29;20210;-53
2021/03/24 07:40:38;;;;;;;17.08;15.05;;;36.40;55.00;;;;;;4947662;29;20276;-53
2021/03/24 07:43:36;;;;;;;14.48;13.05;;;36.40;55.10;;;;;;4909874;29;20252;-51
2021/03/24 07:46:40;;;;;;;15.77;14.38;;;36.50;55.20;;;;;;4880673;29;20230;-50
2021/03/24 07:49:21;;;;;;;17.27;15.57;;;36.50;55.50;;;;;;5007618;28;20196;-51
2021/03/24 07:52:20;;;;;;;14.85;13.45;;;36.50;55.10;;;;;;4948113;29;20298;-51
2021/03/24 07:54:54;;;;;;;15.07;13.73;;;36.40;55.00;;;;;;4946834;29;20321;-50
2021/03/24 07:57:31;;;;;;;15.18;13.68;;;36.30;55.10;;;;;;4948274;29;20203;-49
2021/03/24 08:00:07;;;;;;;16.55;14.77;;;36.20;55.00;;;;;;4947873;29;20673;-49
2021/03/24 08:02:58;;;;;;;16.10;14.40;;;36.20;55.50;;;;;;4948763;28;20204;-49
2021/03/24 08:05:44;;;;;;;14.68;13.32;;;36.20;55.30;;;;;;4980354;28;20277;-51
2021/03/24 08:08:17;;;;;;;15.35;13.95;;;36.20;55.40;;;;;;4930460;28;20318;-51
2021/03/24 08:10:53;;;;;;;16.65;14.73;;;36.10;55.40;;;;;;4963320;28;20205;-50
2021/03/24 08:13:40;;;;;;;15.20;13.80;;;36.10;55.60;;;;;;4963532;28;20303;-53
2021/03/24 08:16:34;;;;;;;15.02;13.52;;;36.10;55.60;;;;;;4880698;29;20302;-49
2021/03/24 08:19:27;;;;;;;14.60;13.20;;;36.00;54.80;;;;;;4892865;29;20262;-49
2021/03/24 08:22:06;;;;;;;13.95;12.65;;;36.00;54.80;;;;;;4888959;29;20608;-53
2021/03/24 08:24:42;;;;;;;13.50;12.20;;;36.00;55.00;;;;;;4894017;29;20413;-50
2021/03/24 08:27:14;;;;;;;14.15;12.48;;;36.00;54.80;;;;;;4869435;29;20310;-51
2021/03/24 08:29:48;;;;;;;12.10;11.02;;;36.00;54.90;;;;;;4869457;29;20224;-48
2021/03/24 08:32:56;;;;;;;14.20;12.55;;;36.00;55.10;;;;;;4869000;29;20295;-52
2021/03/24 08:35:37;;;;;;;15.63;13.93;;;36.10;54.60;;;;;;4858539;29;20981;-50
2021/03/24 08:38:36;;;;;;;14.48;13.07;;;36.10;54.40;;;;;;4869348;29;20221;-50
2021/03/24 08:41:21;;;;;;;15.50;14.10;;;36.20;54.20;;;;;;4884213;29;20246;-50
2021/03/24 08:43:58;;;;;;;14.98;13.48;;;36.20;54.30;;;;;;4872608;29;20391;-49
2021/03/24 08:46:29;;;;;;;15.80;14.35;;;36.20;54.50;;;;;;4889871;29;20219;-50
2021/03/24 08:49:01;;;;;;;13.10;11.88;;;36.20;55.30;;;;;;4889603;29;20298;-50
2021/03/24 08:51:43;;;;;;;14.82;13.43;;;36.10;54.70;;;;;;4904770;29;20509;-54
2021/03/24 08:54:39;;;;;;;15.55;14.05;;;36.10;54.40;;;;;;4928258;29;20645;-50
2021/03/24 08:57:13;;;;;;;15.80;13.90;;;36.20;54.20;;;;;;4982341;28;20218;-50
2021/03/24 08:59:43;;;;;;;13.80;12.60;;;36.10;54.30;;;;;;4914586;28;2024574;-51
2021/03/24 09:02:28;;;;;;;13.65;12.45;;;36.10;55.10;;;;;;4929091;29;20210;-52
2021/03/24 09:05:30;;;;;;;15.32;13.93;;;36.20;54.50;;;;;;4935577;28;20208;-48
2021/03/24 09:08:21;;;;;;;14.15;12.85;;;36.20;53.70;;;;;;4982385;28;20869;-49
2021/03/24 09:11:20;;;;;;;15.55;13.90;;;36.30;53.70;;;;;;5018746;28;20215;-53
2021/03/24 09:13:56;;;;;;;15.07;13.65;;;36.30;53.70;;;;;;5021294;28;20416;-52
2021/03/24 09:16:46;;;;;;;15.63;14.23;;;36.30;53.70;;;;;;5019760;28;20202;-53
2021/03/24 09:19:35;;;;;;;14.20;13.00;;;36.30;53.30;;;;;;4955009;28;20217;-49
2021/03/24 09:22:07;;;;;;;14.25;12.85;;;36.30;53.20;;;;;;4932850;28;20630;-49
2021/03/24 09:24:57;;;;;;;14.73;13.23;;;36.20;53.00;;;;;;4955458;28;20654;-51
2021/03/24 09:27:53;;;;;;;13.52;12.13;;;36.20;52.00;;;;;;4958919;28;20213;-50
2021/03/24 09:31:06;;;;;;;12.77;11.65;;;36.20;53.30;;;;;;4921532;29;20202;-50
2021/03/24 09:33:54;;;;;;;14.43;12.43;;;36.20;53.70;;;;;;4956348;28;20328;-51
2021/03/24 09:36:51;;;;;;;13.73;12.43;;;36.30;53.50;;;;;;4981530;28;20341;-51
2021/03/24 09:39:25;;;;;;;14.43;13.13;;;36.40;53.00;;;;;;4982941;28;20274;-49
2021/03/24 09:42:03;;;;;;;15.77;13.45;;;36.40;53.20;;;;;;4972284;28;20212;-51
2021/03/24 09:44:37;;;;;;;14.00;12.68;;;36.40;53.10;;;;;;4978301;28;20296;-52
2021/03/24 09:47:19;;;;;;;13.80;12.48;;;36.50;52.90;;;;;;4983260;28;20263;-50
2021/03/24 09:49:53;;;;;;;12.85;11.65;;;36.50;52.90;;;;;;4942406;28;20243;-54
2021/03/24 09:52:27;;;;;;;15.02;13.40;;;36.50;53.70;;;;;;4924081;29;20379;-52
2021/03/24 09:55:14;;;;;;;15.07;13.57;;;36.50;53.10;;;;;;4902052;29;20403;-50
2021/03/24 09:58:13;;;;;;;16.05;14.35;;;36.50;53.10;;;;;;4890295;29;20219;-50
2021/03/24 10:00:53;;;;;;;15.63;14.05;;;36.50;52.90;;;;;;4887604;29;20253;-51
2021/03/24 10:03:32;;;;;;;15.27;13.82;;;36.50;53.10;;;;;;4890615;29;20207;-51
2021/03/24 10:06:04;;;;;;;13.73;12.60;;;36.40;53.10;;;;;;4890452;29;20212;-50
2021/03/24 10:08:37;;;;;;;15.18;13.88;;;36.40;53.00;;;;;;4888005;29;20844;-51
2021/03/24 10:11:09;;;;;;;15.98;14.43;;;36.30;53.90;;;;;;4890664;29;20219;-53
2021/03/24 10:13:47;;;;;;;14.50;13.07;;;36.30;54.30;;;;;;4902294;29;20240;-53
2021/03/24 10:16:22;;;;;;;14.50;13.18;;;36.20;54.40;;;;;;4961844;28;20294;-52
2021/03/24 10:18:56;;;;;;;13.38;12.07;;;36.20;54.40;;;;;;5010029;28;20220;-53
2021/03/24 10:21:29;;;;;;;14.85;13.32;;;36.20;54.70;;;;;;5032207;28;20213;-54
2021/03/24 10:24:00;;;;;;;16.20;14.70;;;36.10;55.00;;;;;;5056343;28;20293;-51
2021/03/24 10:26:32;;;;;;;16.48;14.88;;;36.10;55.50;;;;;;5012528;28;20207;-50
2021/03/24 10:29:09;;;;;;;15.75;14.35;;;36.10;55.70;;;;;;4913684;29;20210;-50
2021/03/24 10:31:41;;;;;;;15.48;13.95;;;36.00;55.90;;;;;;4916805;29;20213;-49
2021/03/24 10:34:16;;;;;;;15.52;14.23;;;36.00;55.90;;;;;;4925882;29;20262;-51
2021/03/24 10:36:49;;;;;;;17.55;14.63;;;35.90;56.00;;;;;;4917355;29;20685;-53
2021/03/24 10:39:22;;;;;;;16.85;14.65;;;35.80;56.20;;;;;;4876868;29;20299;-50
2021/03/24 10:41:59;;;;;;;15.48;14.07;;;35.70;56.50;;;;;;4874585;29;20212;-49
2021/03/24 10:44:48;;;;;;;14.85;13.52;;;35.70;56.90;;;;;;4885658;29;20290;-49
2021/03/24 10:47:27;;;;;;;16.52;14.20;;;35.60;57.50;;;;;;4886155;29;20217;-49
2021/03/24 10:50:29;;;;;;;16.45;14.75;;;35.50;57.70;;;;;;4884111;29;20220;-53
2021/03/24 10:53:09;;;;;;;16.13;14.52;;;35.40;58.30;;;;;;4946083;28;20311;-50
2021/03/24 10:55:40;;;;;;;16.95;15.35;;;35.40;58.50;;;;;;4950972;28;20293;-51
2021/03/24 10:58:32;;;;;;;15.45;14.02;;;35.30;58.20;;;;;;4954714;28;20201;-52
2021/03/24 11:01:11;;;;;;;14.88;13.50;;;35.30;58.50;;;;;;5009454;28;20329;-52
2021/03/24 11:03:51;;;;;;;16.02;14.63;;;35.30;58.50;;;;;;4964669;28;20205;-51
2021/03/24 11:06:24;;;;;;;16.30;14.80;;;35.20;58.60;;;;;;4962364;28;20252;-52
2021/03/24 11:08:59;;;;;;;16.40;14.85;;;35.20;58.80;;;;;;4964292;28;20280;-51
2021/03/24 11:11:31;;;;;;;14.02;12.82;;;35.10;59.30;;;;;;5022856;28;20206;-49
2021/03/24 11:14:03;;;;;;;14.27;12.98;;;35.10;59.10;;;;;;5024177;28;20276;-49
2021/03/24 11:16:38;;;;;;;14.75;13.35;;;35.00;59.30;;;;;;5024498;28;20199;-49
2021/03/24 11:19:20;;;;;;;16.20;14.05;;;35.00;59.40;;;;;;5022119;28;20218;-53
2021/03/24 11:22:11;;;;;;;16.00;14.50;;;35.00;59.50;;;;;;5023038;28;20715;-52
2021/03/24 11:24:54;;;;;;;20.35;14.43;;;35.00;59.80;;;;;;5012431;28;20252;-50
2021/03/24 11:27:26;;;;;;;17.38;15.65;;;34.90;59.80;;;;;;4992542;28;20206;-51
2021/03/24 11:30:19;;;;;;;16.55;14.88;;;34.90;59.60;;;;;;5027031;28;20269;-53
2021/03/24 11:33:10;;;;;;;16.33;14.82;;;34.80;59.90;;;;;;5026809;28;20222;-49
2021/03/24 11:35:45;;;;;;;17.13;15.40;;;34.80;60.20;;;;;;4980995;28;20260;-49
2021/03/24 11:38:29;;;;;;;16.73;15.15;;;34.80;60.00;;;;;;4981568;28;20208;-48
2021/03/24 11:41:10;;;;;;;17.58;15.50;;;34.70;60.30;;;;;;4981261;28;20255;-49
2021/03/24 11:43:41;;;;;;;16.50;14.88;;;34.70;60.50;;;;;;4983078;28;20216;-48
2021/03/24 11:46:33;;;;;;;17.40;15.70;;;34.70;60.00;;;;;;4985622;28;20235;-51
2021/03/24 11:49:17;;;;;;;16.98;15.27;;;34.60;60.00;;;;;;4970163;28;20224;-48
2021/03/24 11:51:57;;;;;;;17.92;16.17;;;34.50;60.00;;;;;;4993273;28;20270;-48
2021/03/24 11:54:33;;;;;;;20.33;17.58;;;34.40;60.00;;;;;;4965176;28;20683;-48
2021/03/24 11:57:09;;;;;;;19.45;17.52;;;34.40;60.10;;;;;;4967164;28;20247;-50
2021/03/24 11:59:47;;;;;;;20.40;18.40;;;34.40;60.30;;;;;;4943544;28;20212;-48
2021/03/24 12:02:19;;;;;;;20.90;18.80;;;34.30;60.30;;;;;;4929593;29;20209;-53
2021/03/24 12:05:11;;;;;;;19.40;17.35;;;34.20;60.20;;;;;;4928748;29;20253;-54
2021/03/24 12:08:13;;;;;;;20.15;17.92;;;34.20;60.50;;;;;;4927299;29;20218;-54
2021/03/24 12:10:43;;;;;;;17.65;15.85;;;34.20;60.60;;;;;;4927106;29;20201;-47
2021/03/24 12:13:16;;;;;;;19.63;17.70;;;34.10;60.40;;;;;;4927846;29;20210;-52
2021/03/24 12:15:46;;;;;;;18.50;16.70;;;34.10;60.70;;;;;;4927778;29;20981;-49
2021/03/24 12:18:18;;;;;;;21.15;18.95;;;34.00;60.70;;;;;;4927954;29;20261;-51
2021/03/24 12:20:59;;;;;;;19.75;17.77;;;34.00;60.90;;;;;;4927391;29;20210;-50
2021/03/24 12:23:32;;;;;;;21.15;18.88;;;34.00;61.10;;;;;;4927915;29;20228;-49
2021/03/24 12:26:03;;;;;;;20.13;18.23;;;34.00;61.40;;;;;;4933672;29;20213;-50
2021/03/24 12:28:42;;;;;;;22.50;20.20;;;33.90;61.40;;;;;;4947283;29;20259;-49
2021/03/24 12:31:17;;;;;;;20.33;18.38;;;33.90;61.90;;;;;;4962108;28;20213;-49
2021/03/24 12:33:53;;;;;;;20.30;18.02;;;33.80;61.90;;;;;;5008528;28;20309;-49
2021/03/24 12:36:26;;;;;;;18.70;17.00;;;33.80;62.40;;;;;;5024873;28;20252;-53
2021/03/24 12:38:58;;;;;;;19.33;17.50;;;33.80;62.50;;;;;;5024858;28;20684;-48
2021/03/24 12:41:36;;;;;;;23.77;18.73;;;33.70;62.50;;;;;;5023889;28;20253;-51
2021/03/24 12:44:20;;;;;;;22.55;18.75;;;33.70;62.60;;;;;;5025235;28;20955;-52
2021/03/24 12:46:52;;;;;;;20.30;18.15;;;33.70;62.70;;;;;;5025782;28;20301;-50
2021/03/24 12:49:24;;;;;;;18.63;16.92;;;33.60;62.80;;;;;;5024599;28;20288;-52
2021/03/24 12:52:03;;;;;;;18.73;17.05;;;33.60;62.90;;;;;;5025673;28;20238;-50
2021/03/24 12:54:35;;;;;;;17.90;16.23;;;33.50;63.20;;;;;;5023396;28;20973;-52
2021/03/24 12:57:32;;;;;;;17.70;16.02;;;33.50;63.00;;;;;;5043714;28;20339;-52
2021/03/24 13:00:33;;;;;;;17.73;15.88;;;33.50;63.40;;;;;;5058459;28;20238;-52
2021/03/24 13:03:21;;;;;;;17.48;15.73;;;33.50;63.40;;;;;;5053814;28;20283;-51
2021/03/24 13:05:57;;;;;;;17.60;16.00;;;33.50;63.70;;;;;;5065886;28;20197;-50
2021/03/24 13:08:32;;;;;;;16.35;14.85;;;33.40;63.70;;;;;;5065649;28;20197;-50
2021/03/24 13:11:07;;;;;;;18.50;16.50;;;33.40;64.00;;;;;;5055845;28;20202;-49
2021/03/24 13:13:46;;;;;;;17.48;15.77;;;33.30;64.10;;;;;;5050459;28;20217;-51
2021/03/24 13:16:21;;;;;;;16.23;14.63;;;33.30;64.30;;;;;;5018540;28;20225;-51
2021/03/24 13:18:57;;;;;;;15.35;13.85;;;33.30;64.20;;;;;;5022494;28;20301;-48
2021/03/24 13:21:37;;;;;;;14.55;13.05;;;33.30;64.30;;;;;;5023130;28;20890;-49
2021/03/24 13:24:56;;;;;;;14.30;13.02;;;33.20;64.50;;;;;;5021911;28;20212;-52
2021/03/24 13:27:34;;;;;;;14.18;12.77;;;33.20;64.50;;;;;;4965371;28;20220;-53